createdAt,value
2023-04-15T00:01:37.229Z,2.58
2023-04-15T00:04:04.737Z,2.64
2023-04-15T00:06:31.344Z,2.80
2023-04-15T00:08:57.904Z,2.75
2023-04-15T00:11:24.460Z,2.72
2023-04-15T00:13:51.173Z,2.64
2023-04-15T00:16:17.722Z,2.60
2023-04-15T00:18:44.267Z,2.62
2023-04-15T00:21:10.637Z,2.66
2023-04-15T00:23:36.988Z,2.50
2023-04-15T00:26:03.382Z,2.52
2023-04-15T00:28:30.957Z,2.51
2023-04-15T00:30:57.554Z,2.36
2023-04-15T00:33:23.995Z,2.42
2023-04-15T00:35:50.890Z,2.36
2023-04-15T00:38:17.726Z,2.38
2023-04-15T00:40:44.207Z,2.28
2023-04-15T00:43:10.609Z,2.26
2023-04-15T00:45:37.345Z,2.28
2023-04-15T00:48:05.380Z,2.37
2023-04-15T00:50:31.800Z,2.43
2023-04-15T00:52:58.158Z,2.41
2023-04-15T00:55:24.506Z,2.52
2023-04-15T00:57:51.049Z,2.53
2023-04-15T01:00:18.095Z,2.61
2023-04-15T01:02:44.750Z,2.53
2023-04-15T01:05:11.643Z,2.54
2023-04-15T01:07:38.148Z,2.60
2023-04-15T01:10:05.018Z,2.57
2023-04-15T01:12:33.058Z,2.62
2023-04-15T01:15:00.029Z,2.53
2023-04-15T01:17:26.432Z,2.47
2023-04-15T01:19:52.987Z,2.40
2023-04-15T01:22:19.654Z,2.37
2023-04-15T01:24:55.286Z,2.51
2023-04-15T01:27:22.525Z,2.52
2023-04-15T01:29:48.894Z,2.44
2023-04-15T01:32:15.573Z,2.54
2023-04-15T01:34:42.215Z,2.52
2023-04-15T01:37:08.569Z,2.39
2023-04-15T01:39:35.362Z,2.41
2023-04-15T01:42:01.702Z,2.39
2023-04-15T01:44:28.048Z,2.52
2023-04-15T01:46:54.459Z,2.34
2023-04-15T01:49:20.836Z,2.31
2023-04-15T01:51:47.208Z,2.32
2023-04-15T01:54:13.567Z,2.20
2023-04-15T01:56:39.956Z,2.19
2023-04-15T01:59:06.434Z,2.20
2023-04-15T02:01:32.882Z,2.11
2023-04-15T02:03:59.403Z,2.10
2023-04-15T02:06:25.833Z,2.22
2023-04-15T02:08:52.207Z,2.27
2023-04-15T02:11:18.533Z,2.33
2023-04-15T02:13:45.049Z,2.22
2023-04-15T02:16:18.957Z,2.28
2023-04-15T02:18:46.920Z,2.26
2023-04-15T02:21:13.633Z,2.10
2023-04-15T02:23:40.046Z,2.09
2023-04-15T02:26:07.101Z,1.96
2023-04-15T02:28:33.472Z,1.99
2023-04-15T02:30:59.843Z,1.96
2023-04-15T02:33:26.263Z,1.92
2023-04-15T02:35:53.190Z,2.00
2023-04-15T02:38:19.604Z,2.19
2023-04-15T02:40:46.574Z,2.25
2023-04-15T02:43:12.952Z,2.05
2023-04-15T02:45:39.370Z,2.18
2023-04-15T02:48:06.724Z,2.10
2023-04-15T02:50:33.391Z,1.94
2023-04-15T02:53:01.564Z,2.03
2023-04-15T02:55:28.742Z,2.02
2023-04-15T02:57:55.533Z,2.11
2023-04-15T03:00:22.375Z,1.96
2023-04-15T03:02:52.301Z,2.04
2023-04-15T03:05:18.933Z,2.01
2023-04-15T03:07:45.445Z,2.03
2023-04-15T03:10:11.893Z,1.97
2023-04-15T03:12:38.304Z,1.93
2023-04-15T03:15:05.100Z,1.87
2023-04-15T03:17:31.479Z,1.97
2023-04-15T03:19:57.908Z,1.96
2023-04-15T03:22:25.082Z,1.90
2023-04-15T03:24:51.502Z,1.90
2023-04-15T03:27:17.860Z,1.86
2023-04-15T03:29:44.208Z,1.74
2023-04-15T03:32:10.646Z,1.75
2023-04-15T03:34:37.020Z,1.60
2023-04-15T03:37:03.422Z,1.60
2023-04-15T03:39:29.765Z,1.57
2023-04-15T03:41:56.434Z,1.70
2023-04-15T03:44:22.782Z,1.50
2023-04-15T03:46:49.314Z,1.60
2023-04-15T03:49:16.234Z,1.54
2023-04-15T03:51:42.639Z,1.33
2023-04-15T03:54:08.969Z,1.38
2023-04-15T03:56:35.411Z,1.47
2023-04-15T03:59:02.068Z,1.47
2023-04-15T04:01:28.783Z,1.35
2023-04-15T04:03:55.279Z,1.38
2023-04-15T04:06:21.884Z,1.40
2023-04-15T04:08:48.250Z,1.37
2023-04-15T04:11:14.684Z,1.57
2023-04-15T04:13:41.436Z,1.51
2023-04-15T04:16:08.337Z,1.50
2023-04-15T04:18:34.846Z,1.52
2023-04-15T04:21:01.497Z,1.59
2023-04-15T04:23:28.023Z,1.55
2023-04-15T04:25:54.475Z,1.71
2023-04-15T04:28:20.830Z,1.76
2023-04-15T04:30:47.265Z,1.66
2023-04-15T04:33:13.660Z,1.62
2023-04-15T04:35:40.068Z,1.61
2023-04-15T04:38:06.403Z,1.50
2023-04-15T04:40:32.808Z,1.44
2023-04-15T04:42:59.257Z,1.43
2023-04-15T04:45:25.756Z,1.48
2023-04-15T04:47:52.215Z,1.37
2023-04-15T04:50:18.667Z,1.43
2023-04-15T04:52:45.021Z,1.56
2023-04-15T04:55:11.563Z,1.63
2023-04-15T04:57:39.475Z,1.55
2023-04-15T05:00:08.536Z,1.60
2023-04-15T05:02:35.997Z,1.61
2023-04-15T05:05:02.479Z,1.50
2023-04-15T05:07:28.885Z,1.55
2023-04-15T05:09:55.236Z,1.45
2023-04-15T05:12:21.652Z,1.55
2023-04-15T05:14:48.005Z,1.53
2023-04-15T05:17:14.481Z,1.55
2023-04-15T05:19:40.860Z,1.54
2023-04-15T05:22:07.824Z,1.48
2023-04-15T05:24:34.199Z,1.42
2023-04-15T05:27:02.051Z,1.62
2023-04-15T05:29:28.412Z,1.63
2023-04-15T05:31:54.808Z,1.64
2023-04-15T05:34:21.632Z,1.81
2023-04-15T05:36:48.024Z,1.88
2023-04-15T05:39:14.363Z,1.96
2023-04-15T05:41:40.967Z,2.01
2023-04-15T05:44:07.320Z,2.08
2023-04-15T05:46:33.700Z,1.98
2023-04-15T05:49:00.627Z,2.01
2023-04-15T05:51:27.756Z,2.13
2023-04-15T05:53:54.100Z,2.23
2023-04-15T05:56:20.684Z,2.22
2023-04-15T05:58:47.115Z,2.40
2023-04-15T06:01:13.517Z,2.60
2023-04-15T06:03:40.321Z,2.80
2023-04-15T06:06:07.641Z,2.92
2023-04-15T06:08:34.031Z,3.14
2023-04-15T06:11:00.460Z,3.41
2023-04-15T06:13:27.079Z,3.66
2023-04-15T06:15:54.051Z,3.98
2023-04-15T06:18:20.569Z,4.29
2023-04-15T06:20:46.949Z,4.62
2023-04-15T06:23:13.294Z,4.94
2023-04-15T06:25:39.654Z,5.21
2023-04-15T06:28:06.274Z,5.58
2023-04-15T06:30:32.754Z,5.94
2023-04-15T06:32:59.177Z,6.27
2023-04-15T06:35:25.956Z,6.91
2023-04-15T06:37:52.555Z,7.28
2023-04-15T06:40:18.898Z,7.51
2023-04-15T06:42:45.513Z,7.82
2023-04-15T06:45:11.978Z,7.86
2023-04-15T06:47:38.378Z,7.79
2023-04-15T06:50:05.143Z,7.46
2023-04-15T06:52:31.637Z,7.55
2023-04-15T06:54:59.414Z,8.09
2023-04-15T06:57:25.897Z,8.24
2023-04-15T06:59:54.543Z,8.18
2023-04-15T07:02:21.453Z,8.34
2023-04-15T07:04:47.854Z,8.37
2023-04-15T07:07:15.266Z,8.44
2023-04-15T07:09:41.709Z,8.32
2023-04-15T07:12:08.110Z,8.33
2023-04-15T07:14:34.454Z,8.56
2023-04-15T07:17:00.907Z,8.95
2023-04-15T07:19:27.273Z,9.16
2023-04-15T07:21:53.665Z,9.71
2023-04-15T07:24:20.592Z,10.25
2023-04-15T07:26:47.131Z,10.73
2023-04-15T07:29:13.492Z,11.56
2023-04-15T07:31:41.608Z,11.88
2023-04-15T07:34:08.409Z,12.36
2023-04-15T07:36:35.269Z,12.17
2023-04-15T07:39:03.656Z,12.12
2023-04-15T07:41:30.962Z,12.28
2023-04-15T07:43:57.378Z,12.48
2023-04-15T07:46:24.737Z,12.42
2023-04-15T07:48:51.125Z,12.31
2023-04-15T07:51:17.776Z,12.92
2023-04-15T07:53:44.539Z,12.90
2023-04-15T07:56:11.335Z,12.99
2023-04-15T07:58:37.678Z,13.07
2023-04-15T08:01:05.019Z,12.96
2023-04-15T08:03:32.068Z,13.05
2023-04-15T08:05:58.509Z,13.48
2023-04-15T08:08:25.711Z,12.43
2023-04-15T08:10:52.822Z,12.50
2023-04-15T08:13:19.511Z,12.37
2023-04-15T08:15:46.040Z,12.43
2023-04-15T08:18:12.525Z,12.50
2023-04-15T08:20:38.918Z,12.41
2023-04-15T08:23:05.297Z,12.66
2023-04-15T08:25:31.721Z,12.61
2023-04-15T08:27:58.192Z,12.16
2023-04-15T08:30:24.599Z,12.59
2023-04-15T08:32:51.256Z,12.64
2023-04-15T08:35:18.141Z,12.52
2023-04-15T08:37:44.515Z,12.97
2023-04-15T08:40:11.430Z,12.86
2023-04-15T08:42:44.929Z,12.70
2023-04-15T08:45:11.844Z,12.67
2023-04-15T08:47:41.736Z,12.45
2023-04-15T08:50:10.576Z,12.01
2023-04-15T08:52:37.077Z,12.63
2023-04-15T08:55:04.802Z,12.09
2023-04-15T08:57:33.408Z,12.55
2023-04-15T09:00:04.791Z,12.92
2023-04-15T09:02:32.192Z,12.62
2023-04-15T09:04:58.624Z,12.66
2023-04-15T09:07:25.038Z,12.24
2023-04-15T09:09:52.252Z,11.84
2023-04-15T09:12:18.661Z,12.38
2023-04-15T09:14:47.210Z,12.51
2023-04-15T09:17:13.913Z,12.66
2023-04-15T09:19:40.247Z,12.84
2023-04-15T09:22:06.804Z,12.60
2023-04-15T09:24:39.102Z,12.44
2023-04-15T09:27:06.263Z,11.67
2023-04-15T09:29:32.748Z,11.70
2023-04-15T09:32:13.462Z,11.38
2023-04-15T09:34:39.873Z,11.35
2023-04-15T09:37:07.807Z,11.54
2023-04-15T09:39:51.942Z,11.52
2023-04-15T09:42:24.352Z,11.68
2023-04-15T09:44:52.724Z,11.78
2023-04-15T09:47:29.571Z,11.74
2023-04-15T09:49:57.553Z,11.39
2023-04-15T09:52:24.370Z,11.33
2023-04-15T09:54:54.376Z,11.12
2023-04-15T09:57:21.781Z,11.15
2023-04-15T09:59:48.202Z,11.21
2023-04-15T10:02:15.758Z,11.17
2023-04-15T10:04:42.474Z,11.11
2023-04-15T10:07:09.702Z,10.89
2023-04-15T10:09:37.940Z,10.87
2023-04-15T10:12:05.226Z,10.63
2023-04-15T10:14:35.003Z,10.66
2023-04-15T10:17:02.864Z,10.85
2023-04-15T10:19:31.884Z,10.95
2023-04-15T10:21:59.518Z,11.16
2023-04-15T10:24:27.821Z,11.19
2023-04-15T10:26:55.366Z,11.22
2023-04-15T10:29:23.617Z,11.24
2023-04-15T10:31:50.963Z,11.25
2023-04-15T10:34:18.678Z,11.30
2023-04-15T10:36:46.982Z,11.03
2023-04-15T10:39:38.084Z,11.19
2023-04-15T10:42:19.048Z,10.93
2023-04-15T10:44:51.437Z,10.96
2023-04-15T10:47:21.319Z,10.92
2023-04-15T10:49:57.007Z,10.73
2023-04-15T10:52:26.044Z,10.70
2023-04-15T10:55:10.897Z,10.66
2023-04-15T10:57:41.496Z,10.60
2023-04-15T11:00:16.338Z,10.80
2023-04-15T11:02:55.651Z,10.66
2023-04-15T11:05:43.449Z,10.60
2023-04-15T11:08:13.581Z,10.51
2023-04-15T11:10:39.882Z,10.67
2023-04-15T11:13:17.032Z,10.57
2023-04-15T11:15:45.592Z,10.60
2023-04-15T11:18:20.163Z,10.60
2023-04-15T11:20:48.829Z,10.62
2023-04-15T11:23:16.045Z,10.71
2023-04-15T11:25:43.300Z,10.76
2023-04-15T11:28:11.929Z,10.91
2023-04-15T11:30:40.162Z,10.95
2023-04-15T11:33:12.178Z,10.95
2023-04-15T11:35:40.935Z,10.86
2023-04-15T11:38:13.649Z,10.92
2023-04-15T11:40:40.903Z,10.94
2023-04-15T11:43:11.406Z,11.02
2023-04-15T11:45:47.516Z,10.78
2023-04-15T11:48:14.600Z,10.64
2023-04-15T11:50:41.550Z,10.51
2023-04-15T11:53:10.406Z,10.48
2023-04-15T11:55:47.244Z,10.34
2023-04-15T11:58:22.424Z,10.40
2023-04-15T12:00:50.367Z,10.38
2023-04-15T12:03:24.104Z,10.45
2023-04-15T12:06:10.297Z,10.56
2023-04-15T12:08:55.520Z,10.64
2023-04-15T12:11:31.901Z,10.64
2023-04-15T12:14:09.633Z,10.67
2023-04-15T12:16:47.851Z,10.61
2023-04-15T12:19:18.146Z,10.45
2023-04-15T12:21:47.703Z,10.25
2023-04-15T12:24:14.495Z,10.41
2023-04-15T12:26:45.822Z,10.56
2023-04-15T12:29:13.786Z,10.36
2023-04-15T12:32:03.966Z,10.38
2023-04-15T12:34:39.012Z,10.33
2023-04-15T12:37:07.735Z,10.26
2023-04-15T12:39:42.399Z,10.26
2023-04-15T12:42:09.786Z,10.13
2023-04-15T12:44:36.993Z,10.19
2023-04-15T12:47:04.025Z,10.22
2023-04-15T12:49:32.523Z,10.10
2023-04-15T12:52:00.595Z,10.25
2023-04-15T12:54:27.933Z,10.22
2023-04-15T12:56:55.423Z,10.42
2023-04-15T12:59:23.734Z,10.48
2023-04-15T13:01:50.817Z,10.43
2023-04-15T13:04:17.762Z,10.32
2023-04-15T13:06:44.378Z,10.28
2023-04-15T13:09:10.776Z,10.39
2023-04-15T13:11:37.155Z,10.21
2023-04-15T13:14:08.452Z,9.93
2023-04-15T13:16:35.559Z,9.84
2023-04-15T13:19:03.594Z,9.73
2023-04-15T13:21:32.167Z,9.63
2023-04-15T13:23:58.579Z,9.50
2023-04-15T13:26:25.005Z,9.32
2023-04-15T13:28:51.371Z,9.10
2023-04-15T13:31:17.756Z,9.10
2023-04-15T13:33:44.150Z,9.09
2023-04-15T13:36:10.565Z,8.99
2023-04-15T13:38:36.967Z,8.86
2023-04-15T13:41:03.775Z,8.74
2023-04-15T13:43:30.515Z,8.67
2023-04-15T13:45:56.913Z,8.67
2023-04-15T13:48:23.273Z,8.58
2023-04-15T13:50:50.428Z,8.64
2023-04-15T13:53:16.777Z,8.61
2023-04-15T13:55:43.232Z,8.58
2023-04-15T13:58:09.975Z,8.64
2023-04-15T14:00:36.611Z,8.58
2023-04-15T14:03:03.471Z,8.49
2023-04-15T14:05:29.985Z,8.38
2023-04-15T14:07:56.318Z,8.36
2023-04-15T14:10:22.703Z,8.34
2023-04-15T14:12:49.087Z,8.33
2023-04-15T14:15:15.644Z,8.31
2023-04-15T14:17:42.494Z,8.39
2023-04-15T14:20:09.556Z,8.28
2023-04-15T14:22:36.041Z,8.37
2023-04-15T14:25:02.709Z,8.34
2023-04-15T14:27:29.158Z,8.30
2023-04-15T14:29:55.637Z,8.31
2023-04-15T14:32:22.011Z,8.25
2023-04-15T14:34:48.391Z,8.09
2023-04-15T14:37:14.780Z,7.99
2023-04-15T14:39:41.185Z,7.87
2023-04-15T14:42:07.617Z,7.76
2023-04-15T14:44:34.082Z,7.69
2023-04-15T14:47:00.746Z,7.73
2023-04-15T14:49:27.242Z,7.70
2023-04-15T14:51:53.613Z,7.74
2023-04-15T14:54:21.906Z,7.64
2023-04-15T14:56:48.765Z,7.74
2023-04-15T14:59:15.296Z,7.65
2023-04-15T15:01:41.742Z,7.71
2023-04-15T15:04:10.166Z,7.71
2023-04-15T15:06:36.618Z,7.73
2023-04-15T15:09:03.289Z,7.60
2023-04-15T15:11:30.328Z,7.57
2023-04-15T15:13:57.041Z,7.65
2023-04-15T15:16:23.527Z,7.54
2023-04-15T15:18:51.126Z,7.52
2023-04-15T15:21:18.209Z,7.60
2023-04-15T15:23:44.904Z,7.50
2023-04-15T15:26:12.337Z,7.63
2023-04-15T15:28:38.748Z,7.66
2023-04-15T15:31:05.529Z,7.50
2023-04-15T15:33:32.696Z,7.54
2023-04-15T15:35:59.390Z,7.61
2023-04-15T15:38:26.246Z,7.51
2023-04-15T15:40:53.674Z,7.37
2023-04-15T15:43:20.148Z,7.40
2023-04-15T15:45:46.511Z,7.55
2023-04-15T15:48:12.872Z,7.48
2023-04-15T15:50:39.383Z,7.37
2023-04-15T15:53:05.745Z,7.36
2023-04-15T15:55:32.161Z,7.39
2023-04-15T15:57:58.508Z,7.49
2023-04-15T16:00:24.906Z,7.36
2023-04-15T16:03:06.821Z,7.36
2023-04-15T16:05:35.063Z,7.44
2023-04-15T16:08:01.785Z,7.44
2023-04-15T16:10:28.215Z,7.35
2023-04-15T16:12:54.647Z,7.30
2023-04-15T16:15:22.441Z,7.33
2023-04-15T16:17:48.870Z,7.33
2023-04-15T16:20:15.357Z,7.23
2023-04-15T16:22:41.788Z,7.31
2023-04-15T16:25:08.557Z,7.30
2023-04-15T16:27:46.465Z,7.21
2023-04-15T16:30:22.098Z,7.23
2023-04-15T16:32:48.726Z,7.14
2023-04-15T16:35:16.747Z,7.12
2023-04-15T16:37:43.121Z,7.17
2023-04-15T16:40:10.024Z,7.04
2023-04-15T16:42:36.809Z,6.92
2023-04-15T16:45:03.312Z,6.97
2023-04-15T16:47:29.690Z,7.04
2023-04-15T16:49:56.187Z,7.00
2023-04-15T16:52:22.586Z,6.90
2023-04-15T16:54:48.942Z,7.00
2023-04-15T16:57:15.408Z,6.90
2023-04-15T16:59:41.755Z,6.95
2023-04-15T17:02:12.278Z,6.89
2023-04-15T17:04:39.746Z,6.90
2023-04-15T17:07:06.653Z,6.89
2023-04-15T17:09:33.015Z,6.96
2023-04-15T17:11:59.435Z,6.92
2023-04-15T17:14:27.825Z,6.77
2023-04-15T17:16:54.242Z,6.79
2023-04-15T17:19:20.644Z,6.92
2023-04-15T17:21:47.196Z,6.88
2023-04-15T17:24:13.588Z,6.82
2023-04-15T17:26:40.060Z,6.80
2023-04-15T17:29:06.685Z,6.92
2023-04-15T17:31:33.475Z,6.92
2023-04-15T17:34:07.701Z,6.85
2023-04-15T17:36:38.397Z,6.87
2023-04-15T17:39:05.062Z,6.85
2023-04-15T17:41:31.590Z,6.93
2023-04-15T17:43:57.952Z,6.93
2023-04-15T17:46:24.396Z,6.89
2023-04-15T17:48:50.764Z,6.81
2023-04-15T17:51:17.754Z,6.85
2023-04-15T17:53:44.106Z,6.91
2023-04-15T17:56:10.611Z,6.87
2023-04-15T17:58:38.997Z,6.77
2023-04-15T18:01:06.202Z,6.78
2023-04-15T18:03:32.689Z,6.82
2023-04-15T18:06:00.637Z,6.84
2023-04-15T18:08:27.925Z,6.81
2023-04-15T18:10:54.291Z,6.79
2023-04-15T18:13:20.656Z,6.85
2023-04-15T18:15:48.554Z,6.83
2023-04-15T18:18:15.123Z,6.85
2023-04-15T18:20:41.492Z,6.80
2023-04-15T18:23:07.923Z,6.76
2023-04-15T18:25:34.316Z,6.80
2023-04-15T18:28:00.706Z,6.78
2023-04-15T18:30:27.038Z,6.73
2023-04-15T18:32:53.425Z,6.85
2023-04-15T18:35:20.597Z,6.81
2023-04-15T18:37:47.129Z,6.77
2023-04-15T18:40:15.745Z,6.81
2023-04-15T18:42:42.108Z,6.82
2023-04-15T18:45:08.833Z,6.81
2023-04-15T18:47:35.310Z,6.73
2023-04-15T18:50:01.711Z,6.69
2023-04-15T18:52:28.130Z,6.76
2023-04-15T18:54:54.483Z,6.73
2023-04-15T18:57:24.984Z,6.68
2023-04-15T18:59:58.804Z,6.76
2023-04-15T19:02:25.367Z,6.66
2023-04-15T19:04:51.790Z,6.75
2023-04-15T19:07:18.426Z,6.58
2023-04-15T19:09:44.847Z,6.64
2023-04-15T19:12:11.278Z,6.69
2023-04-15T19:14:37.691Z,6.70
2023-04-15T19:17:04.095Z,6.64
2023-04-15T19:19:30.474Z,6.59
2023-04-15T19:21:57.511Z,6.65
2023-04-15T19:24:23.912Z,6.65
2023-04-15T19:26:51.057Z,6.65
2023-04-15T19:29:17.652Z,6.67
2023-04-15T19:31:44.061Z,6.71
2023-04-15T19:34:10.691Z,6.78
2023-04-15T19:36:37.051Z,6.81
2023-04-15T19:39:03.675Z,6.71
2023-04-15T19:41:30.177Z,6.67
2023-04-15T19:43:56.672Z,6.69
2023-04-15T19:46:23.392Z,6.78
2023-04-15T19:48:49.895Z,6.71
2023-04-15T19:51:16.311Z,6.76
2023-04-15T19:53:42.713Z,6.80
2023-04-15T19:56:09.064Z,6.84
2023-04-15T19:58:35.424Z,6.75
2023-04-15T20:01:02.267Z,6.72
2023-04-15T20:03:28.848Z,6.70
2023-04-15T20:05:55.331Z,6.80
2023-04-15T20:08:21.767Z,6.62
2023-04-15T20:10:48.122Z,6.67
2023-04-15T20:13:14.503Z,6.78
2023-04-15T20:15:41.089Z,6.79
2023-04-15T20:18:07.481Z,6.79
2023-04-15T20:20:34.569Z,6.79
2023-04-15T20:23:00.949Z,6.75
2023-04-15T20:25:27.508Z,6.77
2023-04-15T20:27:53.891Z,6.71
2023-04-15T20:30:20.618Z,6.72
2023-04-15T20:32:47.010Z,6.61
2023-04-15T20:35:13.420Z,6.71
2023-04-15T20:37:40.438Z,6.82
2023-04-15T20:40:07.457Z,6.87
2023-04-15T20:42:36.709Z,6.75
2023-04-15T20:45:03.329Z,6.69
2023-04-15T20:47:29.997Z,6.75
2023-04-15T20:49:56.630Z,6.78
2023-04-15T20:52:23.069Z,6.77
2023-04-15T20:54:49.988Z,6.72
2023-04-15T20:57:16.796Z,6.77
2023-04-15T20:59:43.182Z,6.77
2023-04-15T21:02:09.709Z,6.80
2023-04-15T21:04:37.885Z,6.68
2023-04-15T21:07:04.287Z,6.65
2023-04-15T21:09:30.776Z,6.72
2023-04-15T21:12:01.564Z,6.59
2023-04-15T21:14:28.571Z,6.65
2023-04-15T21:16:56.381Z,6.70
2023-04-15T21:19:22.751Z,6.65
2023-04-15T21:21:49.101Z,6.61
2023-04-15T21:24:15.468Z,6.64
2023-04-15T21:26:41.825Z,6.64
2023-04-15T21:29:11.108Z,6.75
2023-04-15T21:31:38.192Z,6.56
2023-04-15T21:34:05.154Z,6.62
2023-04-15T21:36:31.813Z,6.58
2023-04-15T21:38:58.182Z,6.69
2023-04-15T21:41:24.653Z,6.64
2023-04-15T21:43:51.107Z,6.69
2023-04-15T21:46:22.060Z,6.78
2023-04-15T21:48:50.472Z,6.72
2023-04-15T21:51:16.844Z,6.58
2023-04-15T21:53:43.259Z,6.69
2023-04-15T21:56:09.899Z,6.79
2023-04-15T21:58:36.601Z,6.66
2023-04-15T22:01:04.377Z,6.74
2023-04-15T22:03:33.728Z,6.75
2023-04-15T22:06:01.287Z,6.70
2023-04-15T22:08:27.740Z,6.60
2023-04-15T22:10:54.568Z,6.61
2023-04-15T22:13:20.988Z,6.62
2023-04-15T22:15:47.455Z,6.69
2023-04-15T22:18:13.807Z,6.61
2023-04-15T22:20:40.416Z,6.64
2023-04-15T22:23:09.814Z,6.55
2023-04-15T22:25:37.167Z,6.67
2023-04-15T22:28:07.216Z,6.63
2023-04-15T22:30:37.453Z,6.63
2023-04-15T22:33:03.940Z,6.68
2023-04-15T22:35:30.320Z,6.58
2023-04-15T22:37:56.696Z,6.58
2023-04-15T22:40:23.105Z,6.63
2023-04-15T22:42:49.464Z,6.55
2023-04-15T22:45:15.927Z,6.57
2023-04-15T22:47:42.319Z,6.54
2023-04-15T22:50:08.978Z,6.64
2023-04-15T22:52:35.365Z,6.50
2023-04-15T22:55:01.782Z,6.53
2023-04-15T22:57:28.603Z,6.53
2023-04-15T22:59:55.242Z,6.52
2023-04-15T23:02:21.849Z,6.56
2023-04-15T23:04:48.484Z,6.57
2023-04-15T23:07:14.893Z,6.56
2023-04-15T23:09:41.286Z,6.47
2023-04-15T23:12:07.698Z,6.56
2023-04-15T23:14:34.095Z,6.48
2023-04-15T23:17:00.441Z,6.49
2023-04-15T23:19:26.793Z,6.49
2023-04-15T23:21:53.416Z,6.49
2023-04-15T23:24:19.769Z,6.35
2023-04-15T23:26:46.191Z,6.44
2023-04-15T23:29:12.573Z,6.43
2023-04-15T23:31:39.029Z,6.56
2023-04-15T23:34:06.379Z,6.52
2023-04-15T23:36:32.756Z,6.51
2023-04-15T23:38:59.089Z,6.61
2023-04-15T23:41:25.437Z,6.46
2023-04-15T23:43:51.783Z,6.45
2023-04-15T23:46:18.182Z,6.45
2023-04-15T23:48:44.569Z,6.56
2023-04-15T23:51:11.007Z,6.52
2023-04-15T23:53:37.389Z,6.47
2023-04-15T23:56:04.020Z,6.40
2023-04-15T23:58:31.021Z,6.37
